Time;durP1;ratioP1;P1;durP2;ratioP2;P2;SDS_P1;SDS_P2;PMS_P1;PMS_P2;Temp;Humidity;BMP_temperature;BMP_pressure;BME280_temperature;BME280_humidity;BME280_pressure;Samples;Min_cycle;Max_cycle;Signal;HPM_P1;HPM_P2
2023/01/09 00:01:16;;;;;;;16.92;2.15;;;;;;;;;;5034602;28;20037;-62
2023/01/09 00:03:42;;;;;;;17.02;2.58;;;;;;;;;;5034042;28;20048;-62
2023/01/09 00:06:08;;;;;;;17.88;2.80;;;;;;;;;;5034648;28;20079;-62
2023/01/09 00:08:34;;;;;;;15.13;3.08;;;;;;;;;;5034349;28;20030;-62
2023/01/09 00:11:01;;;;;;;21.35;2.80;;;;;;;;;;5034506;28;20037;-62
2023/01/09 00:13:27;;;;;;;15.15;2.88;;;;;;;;;;5034383;28;20566;-62
2023/01/09 00:15:53;;;;;;;13.10;2.45;;;;;;;;;;5034098;28;20037;-62
2023/01/09 00:18:19;;;;;;;13.90;2.75;;;;;;;;;;5033434;28;20383;-62
2023/01/09 00:20:45;;;;;;;18.52;2.67;;;;;;;;;;5033933;28;20033;-62
2023/01/09 00:23:11;;;;;;;14.10;2.88;;;;;;;;;;5034151;28;20033;-62
2023/01/09 00:25:37;;;;;;;22.15;4.07;;;;;;;;;;5034106;28;20041;-62
2023/01/09 00:28:03;;;;;;;21.08;2.95;;;;;;;;;;5034040;28;20075;-62
2023/01/09 00:30:29;;;;;;;22.98;3.42;;;;;;;;;;5032369;28;20033;-62
2023/01/09 00:32:56;;;;;;;20.17;3.42;;;;;;;;;;5033887;28;20075;-62
2023/01/09 00:35:23;;;;;;;18.02;3.25;;;;;;;;;;5033807;28;20418;-62
2023/01/09 00:37:49;;;;;;;12.77;2.38;;;;;;;;;;5033823;28;20105;-62
2023/01/09 00:40:16;;;;;;;16.05;3.72;;;;;;;;;;5033649;28;20084;-62
2023/01/09 00:42:44;;;;;;;22.33;3.38;;;;;;;;;;5033707;28;20517;-62
2023/01/09 00:45:14;;;;;;;30.40;3.50;;;;;;;;;;5033730;28;20017;-62
2023/01/09 00:47:43;;;;;;;31.50;3.90;;;;;;;;;;5016811;28;20076;-62
2023/01/09 00:50:14;;;;;;;29.40;4.00;;;;;;;;;;5014087;28;20042;-62
2023/01/09 00:52:40;;;;;;;29.38;7.45;;;;;;;;;;5013676;28;20034;-62
2023/01/09 00:55:07;;;;;;;37.88;3.75;;;;;;;;;;5013630;28;20060;-62
2023/01/09 00:57:33;;;;;;;21.60;3.53;;;;;;;;;;5013689;28;20034;-62
2023/01/09 00:59:59;;;;;;;19.15;3.00;;;;;;;;;;5013577;28;20029;-62
2023/01/09 01:02:26;;;;;;;13.35;2.25;;;;;;;;;;5025764;28;20116;-62
2023/01/09 01:07:37;;;;;;;28.70;3.55;;;;;;;;;;5033203;28;20060;-62
2023/01/09 01:10:04;;;;;;;16.80;2.90;;;;;;;;;;5033148;28;20113;-62
2023/01/09 01:12:30;;;;;;;16.92;2.40;;;;;;;;;;5033396;28;20022;-62
2023/01/09 01:14:56;;;;;;;13.88;2.55;;;;;;;;;;5032209;28;20022;-62
2023/01/09 01:17:22;;;;;;;25.60;3.83;;;;;;;;;;5033361;28;20068;-62
2023/01/09 01:19:48;;;;;;;25.05;4.40;;;;;;;;;;5033070;28;20029;-62
2023/01/09 01:22:14;;;;;;;24.05;4.03;;;;;;;;;;5033163;28;20382;-61
2023/01/09 01:24:40;;;;;;;26.48;4.28;;;;;;;;;;5033089;28;20065;-62
2023/01/09 01:27:07;;;;;;;25.42;4.43;;;;;;;;;;5033092;28;20038;-62
2023/01/09 01:29:33;;;;;;;31.05;5.70;;;;;;;;;;5032586;28;20052;-62
2023/01/09 01:31:59;;;;;;;22.48;4.40;;;;;;;;;;5019353;28;20025;-62
2023/01/09 01:34:25;;;;;;;21.95;4.82;;;;;;;;;;5013101;28;20379;-62
2023/01/09 01:36:51;;;;;;;31.75;5.10;;;;;;;;;;5013036;28;20120;-62
2023/01/09 01:39:17;;;;;;;27.42;4.43;;;;;;;;;;5012980;28;20010;-62
2023/01/09 01:41:43;;;;;;;28.98;5.57;;;;;;;;;;5012971;28;20370;-62
2023/01/09 01:44:28;;;;;;;34.00;4.75;;;;;;;;;;5019159;28;20099;-62
2023/01/09 01:46:55;;;;;;;22.42;3.70;;;;;;;;;;5032376;28;20123;-62
2023/01/09 01:49:21;;;;;;;31.33;4.18;;;;;;;;;;5032718;28;20148;-62
2023/01/09 01:51:50;;;;;;;20.48;3.25;;;;;;;;;;5032352;28;20474;-61
2023/01/09 01:54:21;;;;;;;25.20;3.35;;;;;;;;;;5032746;28;20203;-62
2023/01/09 01:56:49;;;;;;;23.42;2.83;;;;;;;;;;5032365;28;20037;-62
2023/01/09 01:59:34;;;;;;;37.20;3.22;;;;;;;;;;5032137;28;20036;-62
2023/01/09 02:02:02;;;;;;;25.48;4.05;;;;;;;;;;5021423;28;20060;-62
2023/01/09 02:04:29;;;;;;;23.60;3.83;;;;;;;;;;5032625;28;20159;-62
2023/01/09 02:06:58;;;;;;;27.17;4.28;;;;;;;;;;5032263;28;20040;-62
2023/01/09 02:09:25;;;;;;;19.23;3.83;;;;;;;;;;5031770;28;20026;-62
2023/01/09 02:11:59;;;;;;;20.88;3.53;;;;;;;;;;5030751;28;20087;-62
2023/01/09 02:14:26;;;;;;;24.90;3.28;;;;;;;;;;5031596;28;20024;-62
2023/01/09 02:16:52;;;;;;;26.13;3.80;;;;;;;;;;5032230;28;20033;-62
2023/01/09 02:19:21;;;;;;;18.13;2.92;;;;;;;;;;5032499;28;20040;-62
2023/01/09 02:22:00;;;;;;;21.58;2.55;;;;;;;;;;5032653;28;20413;-62
2023/01/09 02:24:44;;;;;;;9.93;1.73;;;;;;;;;;5032562;28;20036;-62
2023/01/09 02:27:19;;;;;;;20.95;2.35;;;;;;;;;;5032074;28;20068;-62
2023/01/09 02:30:04;;;;;;;10.93;2.67;;;;;;;;;;5032286;28;20041;-62
2023/01/09 02:32:30;;;;;;;17.10;2.45;;;;;;;;;;5032472;28;20458;-62
2023/01/09 02:34:59;;;;;;;12.63;2.70;;;;;;;;;;5032009;28;20121;-62
2023/01/09 02:37:44;;;;;;;24.17;3.83;;;;;;;;;;5031085;28;20153;-62
2023/01/09 02:40:25;;;;;;;26.90;3.63;;;;;;;;;;5032216;28;20022;-62
2023/01/09 02:42:52;;;;;;;17.70;4.32;;;;;;;;;;5022403;28;20042;-62
2023/01/09 02:45:18;;;;;;;24.63;3.28;;;;;;;;;;5016227;28;20030;-62
2023/01/09 02:47:45;;;;;;;23.40;4.05;;;;;;;;;;5016076;28;20119;-62
2023/01/09 02:50:14;;;;;;;18.73;3.00;;;;;;;;;;5016055;28;20038;-62
2023/01/09 02:52:40;;;;;;;31.50;3.70;;;;;;;;;;5015990;28;20025;-62
2023/01/09 02:55:21;;;;;;;27.67;3.72;;;;;;;;;;5016129;28;20098;-62
2023/01/09 02:58:16;;;;;;;32.50;5.50;;;;;;;;;;5016030;28;20410;-62
2023/01/09 03:00:45;;;;;;;22.17;4.28;;;;;;;;;;5033472;28;20065;-62
2023/01/09 03:03:37;;;;;;;28.50;4.90;;;;;;;;;;5051951;28;20075;-62
2023/01/09 03:06:03;;;;;;;29.95;3.55;;;;;;;;;;5050344;28;20514;-62
2023/01/09 03:08:44;;;;;;;27.52;4.25;;;;;;;;;;5053483;28;20098;-62
2023/01/09 03:11:10;;;;;;;33.80;4.78;;;;;;;;;;5052503;28;20076;-62
2023/01/09 03:13:43;;;;;;;33.17;5.20;;;;;;;;;;5053303;28;20036;-62
2023/01/09 03:16:11;;;;;;;24.35;3.40;;;;;;;;;;5052855;28;20115;-62
2023/01/09 03:18:38;;;;;;;17.35;2.95;;;;;;;;;;5053219;28;20036;-62
2023/01/09 03:21:06;;;;;;;15.77;2.60;;;;;;;;;;5053071;28;20040;-62
2023/01/09 03:23:45;;;;;;;7.90;1.85;;;;;;;;;;5053200;28;20396;-62
2023/01/09 03:26:11;;;;;;;14.88;2.55;;;;;;;;;;5052715;28;20041;-62
2023/01/09 03:28:37;;;;;;;10.85;1.92;;;;;;;;;;5052772;28;20025;-61
2023/01/09 03:31:03;;;;;;;13.48;2.85;;;;;;;;;;5052751;28;20090;-62
2023/01/09 03:33:29;;;;;;;9.35;2.20;;;;;;;;;;5052735;28;20488;-61
2023/01/09 03:35:55;;;;;;;15.70;2.33;;;;;;;;;;5034590;28;20451;-62
2023/01/09 03:38:22;;;;;;;20.00;3.22;;;;;;;;;;5015288;28;20026;-61
2023/01/09 03:40:48;;;;;;;12.18;2.80;;;;;;;;;;5023816;28;20032;-61
2023/01/09 03:43:14;;;;;;;14.65;2.67;;;;;;;;;;5035001;28;20033;-61
2023/01/09 03:45:40;;;;;;;13.15;3.28;;;;;;;;;;5035009;28;20128;-62
2023/01/09 03:48:06;;;;;;;21.17;3.25;;;;;;;;;;5034753;28;20382;-61
2023/01/09 03:50:32;;;;;;;18.13;3.50;;;;;;;;;;5034731;28;20065;-62
2023/01/09 03:52:58;;;;;;;19.30;2.50;;;;;;;;;;5034650;28;20018;-62
2023/01/09 03:55:24;;;;;;;21.17;4.15;;;;;;;;;;5033888;28;20028;-62
2023/01/09 03:57:51;;;;;;;22.83;2.63;;;;;;;;;;5034642;28;20492;-62
2023/01/09 04:00:18;;;;;;;20.83;4.18;;;;;;;;;;5034530;28;20041;-62
2023/01/09 04:02:44;;;;;;;16.25;3.63;;;;;;;;;;5034404;28;20029;-61
2023/01/09 04:05:11;;;;;;;24.42;3.47;;;;;;;;;;5034338;28;20057;-62
2023/01/09 04:07:37;;;;;;;29.38;3.97;;;;;;;;;;5034680;28;20033;-62
2023/01/09 04:10:03;;;;;;;22.23;3.65;;;;;;;;;;5033448;28;20034;-62
2023/01/09 04:12:29;;;;;;;22.30;3.83;;;;;;;;;;5034593;28;20381;-62
2023/01/09 04:14:55;;;;;;;16.08;2.70;;;;;;;;;;5034300;28;20029;-62
2023/01/09 04:17:22;;;;;;;18.67;2.60;;;;;;;;;;5034327;28;20529;-62
2023/01/09 04:19:48;;;;;;;24.25;3.33;;;;;;;;;;5034532;28;20048;-62
2023/01/09 04:22:14;;;;;;;23.98;3.30;;;;;;;;;;5034060;28;20510;-61
2023/01/09 04:24:40;;;;;;;28.55;3.72;;;;;;;;;;5033931;28;20025;-62
2023/01/09 04:27:06;;;;;;;26.80;3.72;;;;;;;;;;5034026;28;20379;-62
2023/01/09 04:29:32;;;;;;;17.05;2.85;;;;;;;;;;5033924;28;20048;-62
2023/01/09 04:31:58;;;;;;;16.08;2.88;;;;;;;;;;5033883;28;20529;-62
2023/01/09 04:34:24;;;;;;;26.77;3.92;;;;;;;;;;5034011;28;20065;-62
2023/01/09 04:36:54;;;;;;;22.20;3.40;;;;;;;;;;5033801;28;20033;-62
2023/01/09 04:39:20;;;;;;;25.50;4.00;;;;;;;;;;5017106;28;20040;-62
2023/01/09 04:41:49;;;;;;;17.88;3.45;;;;;;;;;;5014163;28;20026;-62
2023/01/09 04:44:16;;;;;;;22.63;3.15;;;;;;;;;;5014023;28;20486;-62
2023/01/09 04:46:42;;;;;;;20.23;3.70;;;;;;;;;;5013868;28;20037;-62
2023/01/09 04:49:09;;;;;;;18.25;3.90;;;;;;;;;;5013861;28;20148;-61
2023/01/09 04:51:35;;;;;;;18.65;4.78;;;;;;;;;;5013738;28;20470;-62
2023/01/09 04:54:01;;;;;;;28.60;4.97;;;;;;;;;;5013859;28;20034;-61
2023/01/09 04:56:27;;;;;;;30.90;4.70;;;;;;;;;;5013880;28;20033;-62
2023/01/09 04:58:53;;;;;;;24.55;4.20;;;;;;;;;;5013782;28;20022;-62
2023/01/09 05:01:19;;;;;;;36.42;4.32;;;;;;;;;;5016481;28;20026;-62
2023/01/09 05:03:45;;;;;;;30.40;5.55;;;;;;;;;;5033650;28;20029;-62
2023/01/09 05:06:12;;;;;;;17.67;3.83;;;;;;;;;;5031500;28;20034;-62
2023/01/09 05:08:38;;;;;;;29.38;4.30;;;;;;;;;;5033164;28;20501;-62
2023/01/09 05:11:04;;;;;;;24.88;3.53;;;;;;;;;;5033297;28;20040;-62
2023/01/09 05:13:30;;;;;;;11.43;3.88;;;;;;;;;;5033256;28;20109;-62
2023/01/09 05:15:56;;;;;;;14.70;3.03;;;;;;;;;;5033069;28;20465;-62
2023/01/09 05:18:22;;;;;;;18.80;2.95;;;;;;;;;;5031373;28;20358;-61
2023/01/09 05:20:48;;;;;;;25.02;3.88;;;;;;;;;;5032323;28;20458;-62
2023/01/09 05:23:15;;;;;;;28.40;4.65;;;;;;;;;;5032202;28;20505;-62
2023/01/09 05:25:41;;;;;;;17.60;3.22;;;;;;;;;;5032424;28;20026;-62
2023/01/09 05:28:07;;;;;;;18.10;3.78;;;;;;;;;;5031749;28;20091;-62
2023/01/09 05:30:33;;;;;;;13.85;2.67;;;;;;;;;;5032772;28;20100;-61
2023/01/09 05:32:59;;;;;;;18.00;2.90;;;;;;;;;;5033070;28;20492;-62
2023/01/09 05:35:25;;;;;;;12.02;2.60;;;;;;;;;;5032197;28;20045;-62
2023/01/09 05:37:51;;;;;;;15.20;2.58;;;;;;;;;;5032845;28;20109;-61
2023/01/09 05:40:17;;;;;;;21.73;3.28;;;;;;;;;;5032701;28;20517;-62
2023/01/09 05:42:44;;;;;;;14.38;3.20;;;;;;;;;;5032767;28;20033;-62
2023/01/09 05:45:10;;;;;;;23.52;3.42;;;;;;;;;;5032041;28;20101;-62
2023/01/09 05:47:36;;;;;;;24.15;3.53;;;;;;;;;;5032037;28;20033;-62
2023/01/09 05:50:03;;;;;;;20.17;3.50;;;;;;;;;;5032333;28;20386;-62
2023/01/09 05:52:29;;;;;;;24.92;3.42;;;;;;;;;;5032421;28;20052;-62
2023/01/09 05:54:55;;;;;;;26.45;4.05;;;;;;;;;;5032615;28;20071;-62
2023/01/09 05:57:21;;;;;;;21.05;4.00;;;;;;;;;;5032502;28;20018;-62
2023/01/09 05:59:47;;;;;;;26.30;3.35;;;;;;;;;;5032595;28;20033;-62
2023/01/09 06:02:13;;;;;;;31.60;4.28;;;;;;;;;;5032300;28;20068;-62
2023/01/09 06:04:42;;;;;;;13.07;2.22;;;;;;;;;;5018542;28;20777;-62
2023/01/09 06:07:08;;;;;;;15.05;2.53;;;;;;;;;;5038625;28;20513;-62
2023/01/09 06:09:35;;;;;;;13.02;2.40;;;;;;;;;;5041729;28;20022;-62
2023/01/09 06:12:01;;;;;;;19.02;3.20;;;;;;;;;;5027621;28;20033;-62
2023/01/09 06:14:29;;;;;;;10.10;1.98;;;;;;;;;;5024776;28;20037;-62
2023/01/09 06:16:55;;;;;;;15.00;2.83;;;;;;;;;;5033516;28;20470;-62
2023/01/09 06:19:21;;;;;;;19.88;3.25;;;;;;;;;;5033625;28;20139;-62
2023/01/09 06:21:48;;;;;;;29.02;3.50;;;;;;;;;;5035562;28;20449;-62
2023/01/09 06:24:14;;;;;;;16.83;2.92;;;;;;;;;;5035579;28;20029;-62
2023/01/09 06:26:40;;;;;;;12.07;3.30;;;;;;;;;;5035204;28;20087;-62
2023/01/09 06:29:06;;;;;;;19.48;2.33;;;;;;;;;;5032200;28;20508;-62
2023/01/09 06:31:33;;;;;;;20.83;3.90;;;;;;;;;;5034652;28;20028;-62
2023/01/09 06:33:59;;;;;;;22.63;2.97;;;;;;;;;;5031966;28;20116;-62
2023/01/09 06:36:26;;;;;;;19.58;3.35;;;;;;;;;;5023329;28;20505;-62
2023/01/09 06:38:52;;;;;;;13.85;2.25;;;;;;;;;;5026522;28;20171;-62
2023/01/09 06:41:18;;;;;;;17.33;2.95;;;;;;;;;;5026049;28;20456;-62
2023/01/09 06:43:44;;;;;;;17.25;3.83;;;;;;;;;;5016169;28;20026;-62
2023/01/09 06:46:10;;;;;;;21.30;3.03;;;;;;;;;;5018809;28;20030;-62
2023/01/09 06:48:36;;;;;;;16.10;3.33;;;;;;;;;;5019705;28;20434;-62
2023/01/09 06:51:02;;;;;;;14.88;3.67;;;;;;;;;;5028710;28;20505;-62
2023/01/09 06:53:28;;;;;;;13.82;2.67;;;;;;;;;;5034093;28;20017;-62
2023/01/09 06:55:54;;;;;;;17.13;3.78;;;;;;;;;;5030202;28;20385;-62
2023/01/09 06:58:21;;;;;;;20.48;3.50;;;;;;;;;;5024995;28;20029;-62
2023/01/09 07:00:48;;;;;;;24.63;3.20;;;;;;;;;;5033210;28;20033;-62
2023/01/09 07:03:18;;;;;;;16.00;3.15;;;;;;;;;;5033926;28;20044;-62
2023/01/09 07:05:45;;;;;;;17.58;3.88;;;;;;;;;;5032656;28;20029;-62
2023/01/09 07:08:11;;;;;;;15.88;2.80;;;;;;;;;;5028697;28;20052;-62
2023/01/09 07:10:37;;;;;;;17.17;3.55;;;;;;;;;;5029243;28;20033;-62
2023/01/09 07:13:03;;;;;;;24.17;3.10;;;;;;;;;;5026341;28;20100;-62
2023/01/09 07:15:29;;;;;;;14.15;2.50;;;;;;;;;;5027800;28;20076;-68
2023/01/09 07:17:55;;;;;;;23.40;3.72;;;;;;;;;;5024509;28;20123;-62
2023/01/09 07:20:21;;;;;;;17.23;4.30;;;;;;;;;;5026398;28;20124;-62
2023/01/09 07:22:48;;;;;;;14.02;3.25;;;;;;;;;;5021962;28;20032;-62
2023/01/09 07:25:14;;;;;;;27.13;4.22;;;;;;;;;;5024372;28;20112;-62
2023/01/09 07:27:41;;;;;;;30.80;4.28;;;;;;;;;;5025070;28;20030;-62
2023/01/09 07:30:07;;;;;;;27.27;4.28;;;;;;;;;;5015642;28;20092;-63
2023/01/09 07:32:33;;;;;;;16.42;3.83;;;;;;;;;;5024671;28;20091;-62
2023/01/09 07:35:00;;;;;;;20.20;3.40;;;;;;;;;;5030212;28;20034;-61
2023/01/09 07:37:26;;;;;;;20.42;3.03;;;;;;;;;;5034237;28;20382;-62
2023/01/09 07:39:52;;;;;;;21.30;4.05;;;;;;;;;;5034508;28;20030;-61
2023/01/09 07:42:18;;;;;;;26.85;3.88;;;;;;;;;;5033666;28;20060;-62
2023/01/09 07:44:44;;;;;;;30.92;4.72;;;;;;;;;;5034117;28;20068;-62
2023/01/09 07:47:10;;;;;;;40.00;7.25;;;;;;;;;;5034152;28;20470;-62
2023/01/09 07:49:36;;;;;;;19.73;3.50;;;;;;;;;;5034851;28;20025;-62
2023/01/09 07:52:03;;;;;;;27.42;3.58;;;;;;;;;;5034631;28;20474;-62
2023/01/09 07:54:30;;;;;;;19.75;2.60;;;;;;;;;;5034817;28;20036;-62
2023/01/09 07:56:56;;;;;;;25.02;3.92;;;;;;;;;;5034389;28;20378;-62
2023/01/09 07:59:22;;;;;;;26.02;4.55;;;;;;;;;;5034731;28;20044;-62
2023/01/09 08:01:48;;;;;;;30.70;4.55;;;;;;;;;;5034162;28;20060;-63
2023/01/09 08:04:14;;;;;;;26.73;3.75;;;;;;;;;;5033435;28;20057;-62
2023/01/09 08:06:40;;;;;;;28.17;3.60;;;;;;;;;;5037361;28;20048;-62
2023/01/09 08:09:07;;;;;;;33.00;5.20;;;;;;;;;;5035608;28;20025;-62
2023/01/09 08:11:33;;;;;;;23.92;3.45;;;;;;;;;;5038063;28;20040;-62
2023/01/09 08:13:59;;;;;;;19.58;3.53;;;;;;;;;;5054100;28;20428;-62
2023/01/09 08:16:25;;;;;;;18.65;3.28;;;;;;;;;;5052552;28;20013;-63
2023/01/09 08:18:51;;;;;;;20.52;3.17;;;;;;;;;;5040233;28;20140;-63
2023/01/09 08:21:17;;;;;;;24.67;3.67;;;;;;;;;;5044581;28;20100;-62
2023/01/09 08:23:44;;;;;;;28.48;4.50;;;;;;;;;;5033594;28;20107;-62
2023/01/09 08:26:10;;;;;;;23.08;3.63;;;;;;;;;;5033568;28;20052;-63
2023/01/09 08:28:36;;;;;;;25.20;4.82;;;;;;;;;;5034807;28;20025;-62
2023/01/09 08:31:02;;;;;;;20.95;4.43;;;;;;;;;;5041621;28;20043;-62
2023/01/09 08:33:29;;;;;;;17.63;3.15;;;;;;;;;;5038494;28;20112;-62
2023/01/09 08:35:55;;;;;;;20.80;3.65;;;;;;;;;;5032873;28;20045;-62
2023/01/09 08:38:21;;;;;;;24.10;4.07;;;;;;;;;;5035950;28;20021;-62
2023/01/09 08:40:48;;;;;;;30.90;4.35;;;;;;;;;;5035861;28;20513;-62
2023/01/09 08:48:45;;;;;;;36.05;7.53;;;;;;;;;;5032759;28;20061;-62
2023/01/09 08:51:11;;;;;;;26.90;5.90;;;;;;;;;;5033122;28;20057;-62
2023/01/09 08:53:38;;;;;;;30.98;7.07;;;;;;;;;;5033225;28;20020;-62
2023/01/09 08:56:04;;;;;;;26.05;5.88;;;;;;;;;;5039807;28;20068;-62
2023/01/09 08:58:30;;;;;;;33.20;5.65;;;;;;;;;;5038431;28;20025;-62
2023/01/09 09:00:57;;;;;;;33.15;5.88;;;;;;;;;;5035282;28;20026;-62
2023/01/09 09:03:24;;;;;;;32.25;6.10;;;;;;;;;;5032837;28;20275;-63
2023/01/09 09:05:50;;;;;;;33.35;4.90;;;;;;;;;;5038503;28;20488;-63
2023/01/09 09:08:16;;;;;;;24.80;4.70;;;;;;;;;;5032411;28;20060;-62
2023/01/09 09:10:42;;;;;;;29.30;5.30;;;;;;;;;;5037879;28;20037;-62
2023/01/09 09:13:08;;;;;;;20.88;3.53;;;;;;;;;;5032326;28;20417;-62
2023/01/09 09:15:36;;;;;;;32.60;4.43;;;;;;;;;;5032946;28;20079;-62
2023/01/09 09:18:04;;;;;;;22.73;4.82;;;;;;;;;;5032310;28;20033;-62
2023/01/09 09:20:37;;;;;;;30.33;5.18;;;;;;;;;;5033110;28;20018;-62
2023/01/09 09:23:04;;;;;;;31.08;4.90;;;;;;;;;;5036342;28;20037;-62
2023/01/09 09:25:30;;;;;;;32.05;4.88;;;;;;;;;;5032802;28;20026;-63
2023/01/09 09:27:56;;;;;;;31.58;6.03;;;;;;;;;;5031911;28;20119;-63
2023/01/09 09:30:23;;;;;;;25.58;4.90;;;;;;;;;;5032708;28;20025;-62
2023/01/09 09:32:49;;;;;;;25.92;6.30;;;;;;;;;;5032782;28;20017;-62
2023/01/09 09:35:19;;;;;;;30.60;4.97;;;;;;;;;;5032169;28;20094;-62
2023/01/09 09:37:52;;;;;;;41.50;6.75;;;;;;;;;;5032648;28;20029;-62
2023/01/09 09:40:29;;;;;;;26.65;5.10;;;;;;;;;;5032163;28;20036;-62
2023/01/09 09:46:10;;;;;;;19.70;3.65;;;;;;;;;;5033007;28;20033;-63
2023/01/09 09:48:38;;;;;;;17.83;3.55;;;;;;;;;;5032926;28;20063;-62
2023/01/09 09:51:09;;;;;;;16.08;3.20;;;;;;;;;;5032193;28;20030;-62
2023/01/09 09:53:38;;;;;;;21.07;3.43;;;;;;;;;;5032699;28;20029;-62
2023/01/09 09:56:05;;;;;;;24.23;3.55;;;;;;;;;;5032488;28;20204;-63
2023/01/09 09:58:31;;;;;;;21.58;4.28;;;;;;;;;;5032735;28;20521;-62
2023/01/09 10:00:57;;;;;;;32.45;5.97;;;;;;;;;;5032358;28;20508;-62
2023/01/09 10:03:38;;;;;;;19.73;3.33;;;;;;;;;;5032644;28;20117;-62
2023/01/09 10:06:11;;;;;;;11.68;2.70;;;;;;;;;;5032530;28;20029;-62
2023/01/09 10:08:46;;;;;;;12.07;2.65;;;;;;;;;;5032665;28;20025;-62
2023/01/09 10:11:20;;;;;;;20.38;3.60;;;;;;;;;;5032087;28;20117;-62
2023/01/09 10:14:04;;;;;;;30.30;5.13;;;;;;;;;;5032660;28;20033;-62
2023/01/09 10:16:30;;;;;;;21.05;4.28;;;;;;;;;;5032598;28;20025;-62
2023/01/09 10:19:02;;;;;;;35.95;5.55;;;;;;;;;;5032663;28;20108;-62
2023/01/09 10:21:49;;;;;;;48.77;6.80;;;;;;;;;;5032498;28;20033;-63
2023/01/09 10:24:27;;;;;;;27.98;4.72;;;;;;;;;;5030912;28;20123;-62
2023/01/09 10:26:54;;;;;;;25.35;4.15;;;;;;;;;;5032183;28;20046;-62
2023/01/09 10:29:38;;;;;;;21.70;4.78;;;;;;;;;;5032492;28;20100;-62
2023/01/09 10:32:24;;;;;;;21.45;4.40;;;;;;;;;;5032259;28;20037;-62
2023/01/09 10:34:50;;;;;;;28.35;3.72;;;;;;;;;;5032255;28;20447;-62
2023/01/09 10:37:22;;;;;;;29.63;4.32;;;;;;;;;;5031983;28;20386;-62
2023/01/09 10:39:49;;;;;;;23.80;5.40;;;;;;;;;;5032331;28;20037;-62
2023/01/09 10:42:15;;;;;;;27.65;4.97;;;;;;;;;;5032233;28;20022;-62
2023/01/09 10:45:01;;;;;;;24.85;4.63;;;;;;;;;;5032236;28;20029;-62
2023/01/09 10:47:30;;;;;;;14.63;3.05;;;;;;;;;;5031542;28;20045;-62
2023/01/09 10:49:56;;;;;;;16.92;2.65;;;;;;;;;;5032325;28;20084;-62
2023/01/09 10:52:29;;;;;;;17.52;3.17;;;;;;;;;;5032342;28;20077;-62
2023/01/09 10:55:00;;;;;;;18.52;3.40;;;;;;;;;;5032002;28;20044;-62
2023/01/09 10:57:52;;;;;;;21.60;4.75;;;;;;;;;;5032094;28;20032;-62
2023/01/09 11:00:20;;;;;;;40.88;6.55;;;;;;;;;;5031672;28;20102;-62
2023/01/09 11:02:46;;;;;;;18.63;3.60;;;;;;;;;;5032781;28;20382;-63
2023/01/09 11:05:16;;;;;;;25.35;5.35;;;;;;;;;;5035646;28;20091;-63
2023/01/09 11:07:44;;;;;;;31.35;5.88;;;;;;;;;;5034393;28;20398;-63
2023/01/09 11:10:11;;;;;;;35.03;5.70;;;;;;;;;;5035235;28;20116;-63
2023/01/09 11:12:38;;;;;;;39.13;6.95;;;;;;;;;;5035529;28;20018;-63
2023/01/09 11:15:18;;;;;;;30.73;4.78;;;;;;;;;;5035642;28;20079;-63
2023/01/09 11:17:44;;;;;;;25.30;4.85;;;;;;;;;;5035719;28;20418;-63
2023/01/09 11:20:31;;;;;;;24.90;4.93;;;;;;;;;;5035430;28;20028;-63
2023/01/09 11:22:58;;;;;;;28.42;4.15;;;;;;;;;;5032737;28;20033;-63
2023/01/09 11:25:26;;;;;;;19.00;3.45;;;;;;;;;;5029918;28;20040;-63
2023/01/09 11:28:01;;;;;;;21.60;4.03;;;;;;;;;;5034794;28;20033;-63
2023/01/09 11:30:27;;;;;;;22.65;4.93;;;;;;;;;;5032355;28;20039;-63
2023/01/09 11:32:55;;;;;;;31.63;4.60;;;;;;;;;;5033458;28;20029;-63
2023/01/09 11:35:26;;;;;;;23.17;4.15;;;;;;;;;;5034231;28;20037;-63
2023/01/09 11:38:07;;;;;;;18.48;3.13;;;;;;;;;;5025275;28;20037;-63
2023/01/09 11:40:36;;;;;;;23.30;3.28;;;;;;;;;;5024414;28;20478;-63
2023/01/09 11:43:05;;;;;;;21.13;3.47;;;;;;;;;;5034365;28;20030;-63
2023/01/09 11:45:33;;;;;;;20.58;4.38;;;;;;;;;;5034892;28;20021;-63
2023/01/09 11:48:00;;;;;;;26.10;4.55;;;;;;;;;;5034727;28;20025;-62
2023/01/09 11:50:31;;;;;;;36.75;4.07;;;;;;;;;;5034759;28;20394;-63
2023/01/09 11:53:19;;;;;;;39.60;4.70;;;;;;;;;;5034755;28;20038;-63
2023/01/09 11:55:46;;;;;;;24.48;5.07;;;;;;;;;;5034944;28;20429;-63
2023/01/09 11:58:20;;;;;;;22.23;5.78;;;;;;;;;;5034756;28;20042;-63
2023/01/09 12:00:49;;;;;;;38.95;6.07;;;;;;;;;;5034618;28;20088;-63
2023/01/09 12:03:21;;;;;;;37.08;6.63;;;;;;;;;;5034617;28;20042;-63
2023/01/09 12:05:54;;;;;;;28.70;4.93;;;;;;;;;;5034802;28;20409;-62
2023/01/09 12:08:39;;;;;;;25.88;4.85;;;;;;;;;;5034106;28;20528;-63
2023/01/09 12:11:14;;;;;;;24.05;4.28;;;;;;;;;;5040529;28;20025;-63
2023/01/09 12:13:48;;;;;;;11.15;3.22;;;;;;;;;;5033803;28;20116;-63
2023/01/09 12:16:33;;;;;;;20.45;3.75;;;;;;;;;;5033749;28;20026;-63
2023/01/09 12:19:05;;;;;;;20.38;4.05;;;;;;;;;;5040422;28;20028;-63
2023/01/09 12:21:31;;;;;;;19.00;4.10;;;;;;;;;;5036392;28;20036;-63
2023/01/09 12:24:12;;;;;;;19.67;4.25;;;;;;;;;;5033420;28;20026;-63
2023/01/09 12:26:43;;;;;;;19.33;3.38;;;;;;;;;;5033754;28;20173;-63
2023/01/09 12:29:12;;;;;;;18.85;2.95;;;;;;;;;;5032249;28;20476;-63
2023/01/09 12:31:47;;;;;;;14.52;3.08;;;;;;;;;;5032831;28;20030;-63
2023/01/09 12:34:19;;;;;;;22.63;4.18;;;;;;;;;;5028242;28;20115;-63
2023/01/09 12:37:05;;;;;;;19.90;3.70;;;;;;;;;;5032660;28;20086;-63
2023/01/09 12:39:34;;;;;;;17.13;3.03;;;;;;;;;;5029272;28;20370;-63
2023/01/09 12:42:00;;;;;;;13.63;3.03;;;;;;;;;;5031886;28;20033;-63
2023/01/09 12:44:26;;;;;;;19.02;2.90;;;;;;;;;;5028588;28;21077;-63
2023/01/09 12:46:52;;;;;;;20.42;3.20;;;;;;;;;;5025405;28;20029;-63
2023/01/09 12:49:23;;;;;;;28.27;4.45;;;;;;;;;;5032696;28;20466;-63
2023/01/09 12:51:52;;;;;;;16.75;3.35;;;;;;;;;;5024091;28;20029;-63
2023/01/09 12:54:33;;;;;;;18.58;3.70;;;;;;;;;;5032800;28;20472;-63
2023/01/09 12:57:02;;;;;;;8.80;2.22;;;;;;;;;;5032563;28;20499;-63
2023/01/09 12:59:54;;;;;;;7.13;1.77;;;;;;;;;;5032777;28;20034;-63
2023/01/09 13:02:33;;;;;;;7.15;1.58;;;;;;;;;;5039796;28;20462;-63
2023/01/09 13:05:01;;;;;;;5.78;1.23;;;;;;;;;;5032641;28;20029;-63
2023/01/09 13:07:33;;;;;;;6.20;1.42;;;;;;;;;;5032689;28;20553;-63
2023/01/09 13:10:03;;;;;;;6.70;1.20;;;;;;;;;;5033087;28;20427;-63
2023/01/09 13:12:32;;;;;;;7.18;1.65;;;;;;;;;;5033404;28;20029;-63
2023/01/09 13:15:19;;;;;;;12.57;2.20;;;;;;;;;;5033525;28;20421;-63
2023/01/09 13:17:54;;;;;;;7.72;1.58;;;;;;;;;;5033276;28;20543;-63
2023/01/09 13:20:39;;;;;;;5.68;1.48;;;;;;;;;;5032719;28;20055;-63
2023/01/09 13:23:06;;;;;;;12.15;2.20;;;;;;;;;;5032247;28;20084;-63
2023/01/09 13:25:32;;;;;;;11.18;2.30;;;;;;;;;;5033079;28;20086;-63
2023/01/09 13:28:00;;;;;;;11.25;1.90;;;;;;;;;;5032428;28;20432;-63
2023/01/09 13:30:43;;;;;;;12.98;2.85;;;;;;;;;;5032957;28;20056;-63
2023/01/09 13:33:32;;;;;;;17.48;2.75;;;;;;;;;;5033097;28;20109;-63
2023/01/09 13:36:01;;;;;;;16.13;3.60;;;;;;;;;;5032761;28;20099;-63
2023/01/09 13:38:29;;;;;;;17.58;3.70;;;;;;;;;;5032774;28;20025;-63
2023/01/09 13:44:00;;;;;;;9.57;2.08;;;;;;;;;;5032777;28;20033;-62
2023/01/09 13:46:37;;;;;;;10.95;1.90;;;;;;;;;;5032966;28;20044;-62
2023/01/09 13:49:04;;;;;;;13.77;2.00;;;;;;;;;;5032555;28;20104;-63
2023/01/09 13:51:53;;;;;;;23.85;2.67;;;;;;;;;;5032289;28;20025;-63
2023/01/09 13:54:39;;;;;;;16.17;2.40;;;;;;;;;;5032489;28;20594;-62
2023/01/09 13:57:17;;;;;;;14.98;3.40;;;;;;;;;;5032786;28;20026;-62
2023/01/09 13:59:44;;;;;;;18.27;2.80;;;;;;;;;;5032599;28;20025;-62
2023/01/09 14:02:29;;;;;;;15.65;3.28;;;;;;;;;;5033006;28;20053;-62
2023/01/09 14:04:55;;;;;;;23.73;3.92;;;;;;;;;;5032637;28;20129;-63
2023/01/09 14:07:34;;;;;;;20.73;2.95;;;;;;;;;;5032596;28;20040;-63
2023/01/09 14:10:01;;;;;;;22.88;3.80;;;;;;;;;;5032680;28;20087;-63
2023/01/09 14:12:28;;;;;;;22.70;3.50;;;;;;;;;;5032785;28;20052;-63
2023/01/09 14:14:56;;;;;;;25.42;4.03;;;;;;;;;;5032544;28;20456;-63
2023/01/09 14:17:33;;;;;;;38.10;3.95;;;;;;;;;;5032411;28;20386;-63
2023/01/09 14:20:01;;;;;;;24.13;4.47;;;;;;;;;;5032419;28;20033;-63
2023/01/09 14:22:32;;;;;;;20.05;2.72;;;;;;;;;;5032701;28;20112;-62
2023/01/09 14:25:09;;;;;;;19.67;4.35;;;;;;;;;;5032546;28;20037;-63
2023/01/09 14:27:51;;;;;;;22.38;3.70;;;;;;;;;;5032393;28;20049;-63
2023/01/09 14:30:26;;;;;;;14.77;2.67;;;;;;;;;;5032636;28;20042;-62
2023/01/09 14:32:56;;;;;;;9.70;2.15;;;;;;;;;;5032032;28;20516;-62
2023/01/09 14:35:34;;;;;;;2.97;1.00;;;;;;;;;;5032530;28;20056;-62
2023/01/09 14:38:06;;;;;;;10.88;2.55;;;;;;;;;;5033175;28;20108;-62
2023/01/09 14:40:32;;;;;;;8.50;1.70;;;;;;;;;;5036144;28;20421;-62
2023/01/09 14:43:04;;;;;;;10.90;1.90;;;;;;;;;;5036227;28;20049;-62
2023/01/09 14:45:30;;;;;;;7.72;2.45;;;;;;;;;;5036197;28;20025;-63
2023/01/09 14:48:02;;;;;;;5.55;1.58;;;;;;;;;;5035828;28;20029;-63
2023/01/09 14:50:32;;;;;;;19.02;2.00;;;;;;;;;;5036146;28;20520;-63
2023/01/09 14:53:19;;;;;;;11.95;1.92;;;;;;;;;;5035964;28;20040;-62
2023/01/09 14:55:56;;;;;;;16.35;2.30;;;;;;;;;;5035874;28;20159;-62
2023/01/09 14:58:25;;;;;;;13.70;2.47;;;;;;;;;;5035973;28;20390;-62